sensor_id;sensor_type;location;lat;lon;timestamp;P1;durP1;ratioP1;P2;durP2;ratioP2
22219;SDS011;11279;48.364;10.904;2023-03-20T00:00:46;6.18;;;4.00;;
22219;SDS011;11279;48.364;10.904;2023-03-20T00:01:48;5.55;;;3.55;;
22219;SDS011;11279;48.364;10.904;2023-03-20T00:02:48;5.20;;;3.70;;
22219;SDS011;11279;48.364;10.904;2023-03-20T00:03:49;5.10;;;3.53;;
22219;SDS011;11279;48.364;10.904;2023-03-20T00:04:50;6.57;;;4.13;;
22219;SDS011;11279;48.364;10.904;2023-03-20T00:05:50;6.70;;;3.83;;
22219;SDS011;11279;48.364;10.904;2023-03-20T00:06:52;6.57;;;4.20;;
22219;SDS011;11279;48.364;10.904;2023-03-20T00:07:52;7.53;;;4.23;;
22219;SDS011;11279;48.364;10.904;2023-03-20T00:08:54;5.03;;;3.35;;
22219;SDS011;11279;48.364;10.904;2023-03-20T00:09:56;6.15;;;4.03;;
22219;SDS011;11279;48.364;10.904;2023-03-20T00:10:57;5.87;;;3.70;;
22219;SDS011;11279;48.364;10.904;2023-03-20T00:11:57;6.17;;;3.97;;
22219;SDS011;11279;48.364;10.904;2023-03-20T00:12:59;7.88;;;3.65;;
22219;SDS011;11279;48.364;10.904;2023-03-20T00:14:07;6.78;;;3.83;;
22219;SDS011;11279;48.364;10.904;2023-03-20T00:15:22;7.72;;;3.97;;
22219;SDS011;11279;48.364;10.904;2023-03-20T00:16:28;6.03;;;3.58;;
22219;SDS011;11279;48.364;10.904;2023-03-20T00:17:30;5.80;;;3.70;;
22219;SDS011;11279;48.364;10.904;2023-03-20T00:18:31;6.63;;;4.30;;
22219;SDS011;11279;48.364;10.904;2023-03-20T00:19:32;7.80;;;3.83;;
22219;SDS011;11279;48.364;10.904;2023-03-20T00:20:32;6.00;;;3.60;;
22219;SDS011;11279;48.364;10.904;2023-03-20T00:21:32;4.83;;;3.40;;
22219;SDS011;11279;48.364;10.904;2023-03-20T00:22:33;7.97;;;4.73;;
22219;SDS011;11279;48.364;10.904;2023-03-20T00:23:33;7.53;;;3.87;;
22219;SDS011;11279;48.364;10.904;2023-03-20T00:24:34;6.30;;;3.93;;
22219;SDS011;11279;48.364;10.904;2023-03-20T00:25:34;6.23;;;3.67;;
22219;SDS011;11279;48.364;10.904;2023-03-20T00:26:37;4.65;;;3.40;;
22219;SDS011;11279;48.364;10.904;2023-03-20T00:27:38;6.13;;;3.77;;
22219;SDS011;11279;48.364;10.904;2023-03-20T00:28:40;5.07;;;3.60;;
22219;SDS011;11279;48.364;10.904;2023-03-20T00:29:41;8.18;;;3.92;;
22219;SDS011;11279;48.364;10.904;2023-03-20T00:30:43;4.20;;;3.25;;
22219;SDS011;11279;48.364;10.904;2023-03-20T00:31:43;4.57;;;3.43;;
22219;SDS011;11279;48.364;10.904;2023-03-20T00:32:43;5.40;;;3.30;;
22219;SDS011;11279;48.364;10.904;2023-03-20T00:33:44;7.87;;;3.93;;
22219;SDS011;11279;48.364;10.904;2023-03-20T00:34:44;7.63;;;3.63;;
22219;SDS011;11279;48.364;10.904;2023-03-20T00:35:45;6.40;;;3.77;;
22219;SDS011;11279;48.364;10.904;2023-03-20T00:36:46;5.87;;;3.53;;
22219;SDS011;11279;48.364;10.904;2023-03-20T00:37:46;7.00;;;3.37;;
22219;SDS011;11279;48.364;10.904;2023-03-20T00:38:47;5.70;;;3.10;;
22219;SDS011;11279;48.364;10.904;2023-03-20T00:39:48;6.13;;;3.40;;
22219;SDS011;11279;48.364;10.904;2023-03-20T00:40:48;6.37;;;3.70;;
22219;SDS011;11279;48.364;10.904;2023-03-20T00:41:52;5.00;;;3.73;;
22219;SDS011;11279;48.364;10.904;2023-03-20T00:42:57;6.13;;;3.42;;
22219;SDS011;11279;48.364;10.904;2023-03-20T00:43:59;7.93;;;3.78;;
22219;SDS011;11279;48.364;10.904;2023-03-20T00:45:20;7.03;;;3.40;;
22219;SDS011;11279;48.364;10.904;2023-03-20T00:46:20;5.83;;;3.93;;
22219;SDS011;11279;48.364;10.904;2023-03-20T00:47:21;7.87;;;3.83;;
22219;SDS011;11279;48.364;10.904;2023-03-20T00:48:23;6.40;;;3.63;;
22219;SDS011;11279;48.364;10.904;2023-03-20T00:49:27;6.00;;;3.50;;
22219;SDS011;11279;48.364;10.904;2023-03-20T00:50:29;8.45;;;3.83;;
22219;SDS011;11279;48.364;10.904;2023-03-20T00:51:30;4.30;;;3.40;;
22219;SDS011;11279;48.364;10.904;2023-03-20T00:52:31;6.13;;;3.40;;
22219;SDS011;11279;48.364;10.904;2023-03-20T00:53:31;5.37;;;3.87;;
22219;SDS011;11279;48.364;10.904;2023-03-20T00:54:32;4.50;;;3.30;;
22219;SDS011;11279;48.364;10.904;2023-03-20T00:55:32;9.87;;;3.60;;
22219;SDS011;11279;48.364;10.904;2023-03-20T00:56:34;4.50;;;3.23;;
22219;SDS011;11279;48.364;10.904;2023-03-20T00:57:39;7.18;;;4.07;;
22219;SDS011;11279;48.364;10.904;2023-03-20T00:58:42;5.88;;;3.40;;
22219;SDS011;11279;48.364;10.904;2023-03-20T01:00:25;5.63;;;3.37;;
22219;SDS011;11279;48.364;10.904;2023-03-20T01:01:19;4.45;;;3.20;;
22219;SDS011;11279;48.364;10.904;2023-03-20T01:02:20;5.23;;;3.20;;
22219;SDS011;11279;48.364;10.904;2023-03-20T01:03:22;4.45;;;3.17;;
22219;SDS011;11279;48.364;10.904;2023-03-20T01:04:23;4.32;;;3.10;;
22219;SDS011;11279;48.364;10.904;2023-03-20T01:05:24;3.78;;;2.90;;
22219;SDS011;11279;48.364;10.904;2023-03-20T01:06:26;5.93;;;3.08;;
22219;SDS011;11279;48.364;10.904;2023-03-20T01:07:28;5.53;;;3.80;;
22219;SDS011;11279;48.364;10.904;2023-03-20T01:08:28;6.73;;;3.37;;
22219;SDS011;11279;48.364;10.904;2023-03-20T01:09:28;4.03;;;3.03;;
22219;SDS011;11279;48.364;10.904;2023-03-20T01:10:29;6.17;;;3.47;;
22219;SDS011;11279;48.364;10.904;2023-03-20T01:11:31;4.40;;;3.13;;
22219;SDS011;11279;48.364;10.904;2023-03-20T01:12:31;6.73;;;3.00;;
22219;SDS011;11279;48.364;10.904;2023-03-20T01:13:32;3.97;;;3.13;;
22219;SDS011;11279;48.364;10.904;2023-03-20T01:14:33;4.37;;;3.10;;
22219;SDS011;11279;48.364;10.904;2023-03-20T01:15:33;5.80;;;3.40;;
22219;SDS011;11279;48.364;10.904;2023-03-20T01:16:35;6.32;;;3.60;;
22219;SDS011;11279;48.364;10.904;2023-03-20T01:17:36;5.23;;;3.17;;
22219;SDS011;11279;48.364;10.904;2023-03-20T01:18:36;5.77;;;3.10;;
22219;SDS011;11279;48.364;10.904;2023-03-20T01:19:37;5.13;;;3.15;;
22219;SDS011;11279;48.364;10.904;2023-03-20T01:20:38;4.07;;;2.93;;
22219;SDS011;11279;48.364;10.904;2023-03-20T01:21:39;7.93;;;3.23;;
22219;SDS011;11279;48.364;10.904;2023-03-20T01:22:40;5.80;;;3.40;;
22219;SDS011;11279;48.364;10.904;2023-03-20T01:23:40;3.80;;;2.77;;
22219;SDS011;11279;48.364;10.904;2023-03-20T01:24:41;4.43;;;3.07;;
22219;SDS011;11279;48.364;10.904;2023-03-20T01:25:42;5.07;;;3.17;;
22219;SDS011;11279;48.364;10.904;2023-03-20T01:26:43;3.10;;;2.60;;
22219;SDS011;11279;48.364;10.904;2023-03-20T01:27:45;4.65;;;3.33;;
22219;SDS011;11279;48.364;10.904;2023-03-20T01:28:50;5.63;;;3.03;;
22219;SDS011;11279;48.364;10.904;2023-03-20T01:29:50;5.60;;;3.20;;
22219;SDS011;11279;48.364;10.904;2023-03-20T01:30:51;5.63;;;3.40;;
22219;SDS011;11279;48.364;10.904;2023-03-20T01:31:51;4.60;;;3.20;;
22219;SDS011;11279;48.364;10.904;2023-03-20T01:32:52;4.73;;;3.10;;
22219;SDS011;11279;48.364;10.904;2023-03-20T01:33:53;4.68;;;3.03;;
22219;SDS011;11279;48.364;10.904;2023-03-20T01:34:54;5.17;;;3.27;;
22219;SDS011;11279;48.364;10.904;2023-03-20T01:35:54;4.50;;;2.90;;
22219;SDS011;11279;48.364;10.904;2023-03-20T01:36:56;4.82;;;3.20;;
22219;SDS011;11279;48.364;10.904;2023-03-20T01:37:58;6.63;;;3.25;;
22219;SDS011;11279;48.364;10.904;2023-03-20T01:38:58;5.87;;;3.20;;
22219;SDS011;11279;48.364;10.904;2023-03-20T01:39:59;5.83;;;3.30;;
22219;SDS011;11279;48.364;10.904;2023-03-20T01:42:17;4.80;;;2.97;;
22219;SDS011;11279;48.364;10.904;2023-03-20T01:43:18;5.47;;;3.37;;
22219;SDS011;11279;48.364;10.904;2023-03-20T01:45:28;4.68;;;2.95;;
22219;SDS011;11279;48.364;10.904;2023-03-20T01:46:31;4.10;;;3.00;;
22219;SDS011;11279;48.364;10.904;2023-03-20T01:47:32;6.33;;;3.50;;
22219;SDS011;11279;48.364;10.904;2023-03-20T01:50:17;5.13;;;2.97;;
22219;SDS011;11279;48.364;10.904;2023-03-20T01:51:26;5.88;;;3.00;;
22219;SDS011;11279;48.364;10.904;2023-03-20T01:52:35;4.72;;;2.95;;
22219;SDS011;11279;48.364;10.904;2023-03-20T01:53:35;5.57;;;3.13;;
22219;SDS011;11279;48.364;10.904;2023-03-20T01:54:36;4.83;;;3.00;;
22219;SDS011;11279;48.364;10.904;2023-03-20T01:55:37;4.10;;;2.60;;
22219;SDS011;11279;48.364;10.904;2023-03-20T01:56:43;5.47;;;3.13;;
22219;SDS011;11279;48.364;10.904;2023-03-20T01:57:50;6.45;;;3.17;;
22219;SDS011;11279;48.364;10.904;2023-03-20T01:58:56;5.65;;;3.25;;
22219;SDS011;11279;48.364;10.904;2023-03-20T02:00:01;5.53;;;3.03;;
22219;SDS011;11279;48.364;10.904;2023-03-20T02:01:05;3.38;;;2.67;;
22219;SDS011;11279;48.364;10.904;2023-03-20T02:02:08;4.43;;;2.80;;
22219;SDS011;11279;48.364;10.904;2023-03-20T02:03:09;3.63;;;2.78;;
22219;SDS011;11279;48.364;10.904;2023-03-20T02:04:10;4.40;;;3.03;;
22219;SDS011;11279;48.364;10.904;2023-03-20T02:05:11;4.65;;;2.92;;
22219;SDS011;11279;48.364;10.904;2023-03-20T02:06:12;3.97;;;3.03;;
22219;SDS011;11279;48.364;10.904;2023-03-20T02:07:14;4.70;;;3.13;;
22219;SDS011;11279;48.364;10.904;2023-03-20T02:09:19;3.40;;;2.88;;
22219;SDS011;11279;48.364;10.904;2023-03-20T02:10:19;5.40;;;2.80;;
22219;SDS011;11279;48.364;10.904;2023-03-20T02:11:20;6.07;;;3.20;;
22219;SDS011;11279;48.364;10.904;2023-03-20T02:12:22;3.53;;;2.72;;
22219;SDS011;11279;48.364;10.904;2023-03-20T02:13:24;4.03;;;2.90;;
22219;SDS011;11279;48.364;10.904;2023-03-20T02:14:26;3.97;;;2.88;;
22219;SDS011;11279;48.364;10.904;2023-03-20T02:15:28;4.43;;;2.70;;
22219;SDS011;11279;48.364;10.904;2023-03-20T02:16:29;4.97;;;2.92;;
22219;SDS011;11279;48.364;10.904;2023-03-20T02:17:30;4.80;;;3.03;;
22219;SDS011;11279;48.364;10.904;2023-03-20T02:18:31;3.53;;;2.77;;
22219;SDS011;11279;48.364;10.904;2023-03-20T02:34:05;4.55;;;2.90;;
22219;SDS011;11279;48.364;10.904;2023-03-20T02:35:35;4.68;;;2.72;;
22219;SDS011;11279;48.364;10.904;2023-03-20T02:38:22;5.45;;;2.67;;
22219;SDS011;11279;48.364;10.904;2023-03-20T02:44:47;4.00;;;2.60;;
22219;SDS011;11279;48.364;10.904;2023-03-20T02:45:54;5.38;;;2.38;;
22219;SDS011;11279;48.364;10.904;2023-03-20T02:47:25;3.38;;;2.60;;
22219;SDS011;11279;48.364;10.904;2023-03-20T02:49:52;3.20;;;2.38;;
22219;SDS011;11279;48.364;10.904;2023-03-20T02:53:31;4.53;;;2.42;;
22219;SDS011;11279;48.364;10.904;2023-03-20T02:58:09;3.80;;;2.78;;
22219;SDS011;11279;48.364;10.904;2023-03-20T02:59:19;3.30;;;2.58;;
22219;SDS011;11279;48.364;10.904;2023-03-20T03:02:34;5.55;;;2.40;;
22219;SDS011;11279;48.364;10.904;2023-03-20T03:03:46;4.25;;;2.70;;
22219;SDS011;11279;48.364;10.904;2023-03-20T03:04:50;5.05;;;2.70;;
22219;SDS011;11279;48.364;10.904;2023-03-20T03:05:57;3.67;;;2.40;;
22219;SDS011;11279;48.364;10.904;2023-03-20T03:06:59;4.20;;;2.70;;
22219;SDS011;11279;48.364;10.904;2023-03-20T03:08:02;3.75;;;2.40;;
22219;SDS011;11279;48.364;10.904;2023-03-20T03:09:11;5.78;;;3.08;;
22219;SDS011;11279;48.364;10.904;2023-03-20T03:10:21;3.45;;;2.60;;
22219;SDS011;11279;48.364;10.904;2023-03-20T03:11:26;5.78;;;2.90;;
22219;SDS011;11279;48.364;10.904;2023-03-20T03:12:28;3.47;;;2.53;;
22219;SDS011;11279;48.364;10.904;2023-03-20T03:13:31;2.53;;;2.30;;
22219;SDS011;11279;48.364;10.904;2023-03-20T03:14:40;3.45;;;2.70;;
22219;SDS011;11279;48.364;10.904;2023-03-20T03:15:44;3.72;;;2.70;;
22219;SDS011;11279;48.364;10.904;2023-03-20T03:16:46;5.43;;;2.40;;
22219;SDS011;11279;48.364;10.904;2023-03-20T03:17:47;3.95;;;2.83;;
22219;SDS011;11279;48.364;10.904;2023-03-20T03:18:49;5.95;;;3.30;;
22219;SDS011;11279;48.364;10.904;2023-03-20T03:19:58;3.60;;;2.95;;
22219;SDS011;11279;48.364;10.904;2023-03-20T03:21:01;4.45;;;2.85;;
22219;SDS011;11279;48.364;10.904;2023-03-20T03:22:03;5.60;;;3.28;;
22219;SDS011;11279;48.364;10.904;2023-03-20T03:23:04;4.17;;;2.90;;
22219;SDS011;11279;48.364;10.904;2023-03-20T03:24:06;3.63;;;2.60;;
22219;SDS011;11279;48.364;10.904;2023-03-20T03:25:15;5.25;;;2.67;;
22219;SDS011;11279;48.364;10.904;2023-03-20T03:26:26;4.40;;;3.13;;
22219;SDS011;11279;48.364;10.904;2023-03-20T03:27:30;4.57;;;3.28;;
22219;SDS011;11279;48.364;10.904;2023-03-20T03:28:43;5.63;;;3.08;;
22219;SDS011;11279;48.364;10.904;2023-03-20T03:29:48;5.03;;;3.20;;
22219;SDS011;11279;48.364;10.904;2023-03-20T03:30:52;3.83;;;2.80;;
22219;SDS011;11279;48.364;10.904;2023-03-20T03:31:55;4.15;;;3.10;;
22219;SDS011;11279;48.364;10.904;2023-03-20T03:33:04;4.03;;;3.07;;
22219;SDS011;11279;48.364;10.904;2023-03-20T03:34:11;5.82;;;2.88;;
22219;SDS011;11279;48.364;10.904;2023-03-20T03:35:14;4.90;;;3.20;;
22219;SDS011;11279;48.364;10.904;2023-03-20T03:38:59;4.67;;;3.30;;
22219;SDS011;11279;48.364;10.904;2023-03-20T03:40:06;4.80;;;3.28;;
22219;SDS011;11279;48.364;10.904;2023-03-20T03:41:25;5.22;;;3.38;;
22219;SDS011;11279;48.364;10.904;2023-03-20T03:42:31;6.00;;;3.25;;
22219;SDS011;11279;48.364;10.904;2023-03-20T03:43:38;4.45;;;3.35;;
22219;SDS011;11279;48.364;10.904;2023-03-20T03:44:52;5.78;;;3.75;;
22219;SDS011;11279;48.364;10.904;2023-03-20T03:47:05;5.50;;;3.63;;
22219;SDS011;11279;48.364;10.904;2023-03-20T03:48:11;6.55;;;3.70;;
22219;SDS011;11279;48.364;10.904;2023-03-20T03:49:15;6.03;;;3.38;;
22219;SDS011;11279;48.364;10.904;2023-03-20T03:50:24;6.53;;;3.83;;
22219;SDS011;11279;48.364;10.904;2023-03-20T03:51:31;5.75;;;3.63;;
22219;SDS011;11279;48.364;10.904;2023-03-20T03:52:34;5.35;;;3.53;;
22219;SDS011;11279;48.364;10.904;2023-03-20T03:53:36;6.57;;;3.85;;
22219;SDS011;11279;48.364;10.904;2023-03-20T03:54:43;5.05;;;3.67;;
22219;SDS011;11279;48.364;10.904;2023-03-20T03:55:56;5.35;;;3.45;;
22219;SDS011;11279;48.364;10.904;2023-03-20T03:56:59;4.57;;;3.38;;
22219;SDS011;11279;48.364;10.904;2023-03-20T03:58:03;7.43;;;4.05;;
22219;SDS011;11279;48.364;10.904;2023-03-20T03:59:11;5.63;;;3.72;;
22219;SDS011;11279;48.364;10.904;2023-03-20T04:00:18;4.70;;;3.45;;
22219;SDS011;11279;48.364;10.904;2023-03-20T04:01:19;5.32;;;3.72;;
22219;SDS011;11279;48.364;10.904;2023-03-20T04:02:21;5.50;;;3.65;;
22219;SDS011;11279;48.364;10.904;2023-03-20T04:03:23;6.43;;;3.88;;
22219;SDS011;11279;48.364;10.904;2023-03-20T04:04:27;4.82;;;3.55;;
22219;SDS011;11279;48.364;10.904;2023-03-20T04:05:29;5.53;;;3.72;;
22219;SDS011;11279;48.364;10.904;2023-03-20T04:06:32;4.82;;;3.30;;
22219;SDS011;11279;48.364;10.904;2023-03-20T04:07:32;4.63;;;3.30;;
22219;SDS011;11279;48.364;10.904;2023-03-20T04:08:33;6.30;;;4.00;;
22219;SDS011;11279;48.364;10.904;2023-03-20T04:09:33;7.53;;;3.83;;
22219;SDS011;11279;48.364;10.904;2023-03-20T04:10:34;5.93;;;3.90;;
22219;SDS011;11279;48.364;10.904;2023-03-20T04:11:34;7.07;;;3.80;;
22219;SDS011;11279;48.364;10.904;2023-03-20T04:13:39;7.38;;;3.70;;
22219;SDS011;11279;48.364;10.904;2023-03-20T04:14:39;5.70;;;4.00;;
22219;SDS011;11279;48.364;10.904;2023-03-20T04:15:40;6.50;;;3.63;;
22219;SDS011;11279;48.364;10.904;2023-03-20T04:16:40;6.43;;;3.73;;
22219;SDS011;11279;48.364;10.904;2023-03-20T04:17:41;6.57;;;3.90;;
22219;SDS011;11279;48.364;10.904;2023-03-20T04:18:42;5.65;;;3.65;;
22219;SDS011;11279;48.364;10.904;2023-03-20T04:19:43;4.57;;;3.63;;
22219;SDS011;11279;48.364;10.904;2023-03-20T04:20:44;6.87;;;4.00;;
22219;SDS011;11279;48.364;10.904;2023-03-20T04:21:45;5.88;;;4.00;;
22219;SDS011;11279;48.364;10.904;2023-03-20T04:22:46;5.93;;;3.90;;
22219;SDS011;11279;48.364;10.904;2023-03-20T04:23:46;7.07;;;3.23;;
22219;SDS011;11279;48.364;10.904;2023-03-20T04:24:46;5.30;;;3.83;;
22219;SDS011;11279;48.364;10.904;2023-03-20T04:25:48;6.07;;;3.70;;
22219;SDS011;11279;48.364;10.904;2023-03-20T04:26:48;7.22;;;4.15;;
22219;SDS011;11279;48.364;10.904;2023-03-20T04:27:49;5.77;;;3.70;;
22219;SDS011;11279;48.364;10.904;2023-03-20T04:28:49;8.10;;;4.13;;
22219;SDS011;11279;48.364;10.904;2023-03-20T04:29:50;7.00;;;4.10;;
22219;SDS011;11279;48.364;10.904;2023-03-20T04:30:52;5.57;;;3.90;;
22219;SDS011;11279;48.364;10.904;2023-03-20T04:31:53;5.85;;;4.28;;
22219;SDS011;11279;48.364;10.904;2023-03-20T04:32:53;6.47;;;4.23;;
22219;SDS011;11279;48.364;10.904;2023-03-20T04:33:54;11.23;;;4.30;;
22219;SDS011;11279;48.364;10.904;2023-03-20T04:34:54;8.77;;;4.10;;
22219;SDS011;11279;48.364;10.904;2023-03-20T04:35:55;7.50;;;4.10;;
22219;SDS011;11279;48.364;10.904;2023-03-20T04:36:55;5.77;;;3.33;;
22219;SDS011;11279;48.364;10.904;2023-03-20T04:37:56;5.33;;;3.90;;
22219;SDS011;11279;48.364;10.904;2023-03-20T04:38:56;7.07;;;4.37;;
22219;SDS011;11279;48.364;10.904;2023-03-20T04:39:57;5.13;;;4.07;;
22219;SDS011;11279;48.364;10.904;2023-03-20T04:40:57;6.83;;;3.97;;
22219;SDS011;11279;48.364;10.904;2023-03-20T04:41:57;6.50;;;4.17;;
22219;SDS011;11279;48.364;10.904;2023-03-20T04:42:58;6.60;;;4.20;;
22219;SDS011;11279;48.364;10.904;2023-03-20T04:43:58;6.03;;;4.00;;
22219;SDS011;11279;48.364;10.904;2023-03-20T04:44:59;7.30;;;4.50;;
22219;SDS011;11279;48.364;10.904;2023-03-20T04:45:59;7.10;;;4.47;;
22219;SDS011;11279;48.364;10.904;2023-03-20T04:47:00;7.40;;;3.80;;
22219;SDS011;11279;48.364;10.904;2023-03-20T04:48:01;8.73;;;4.27;;
22219;SDS011;11279;48.364;10.904;2023-03-20T04:49:01;6.47;;;4.47;;
22219;SDS011;11279;48.364;10.904;2023-03-20T04:50:01;7.10;;;4.57;;
22219;SDS011;11279;48.364;10.904;2023-03-20T04:51:02;6.80;;;4.57;;
22219;SDS011;11279;48.364;10.904;2023-03-20T04:52:03;6.63;;;4.90;;
22219;SDS011;11279;48.364;10.904;2023-03-20T04:53:04;8.03;;;4.37;;
22219;SDS011;11279;48.364;10.904;2023-03-20T04:54:04;6.93;;;4.15;;
22219;SDS011;11279;48.364;10.904;2023-03-20T04:55:05;7.57;;;4.80;;
22219;SDS011;11279;48.364;10.904;2023-03-20T04:56:06;8.07;;;4.40;;
22219;SDS011;11279;48.364;10.904;2023-03-20T04:57:07;7.50;;;4.73;;
22219;SDS011;11279;48.364;10.904;2023-03-20T04:58:07;7.07;;;4.30;;
22219;SDS011;11279;48.364;10.904;2023-03-20T04:59:07;8.00;;;5.20;;
22219;SDS011;11279;48.364;10.904;2023-03-20T05:00:08;7.30;;;4.93;;
22219;SDS011;11279;48.364;10.904;2023-03-20T05:01:10;8.00;;;4.38;;
22219;SDS011;11279;48.364;10.904;2023-03-20T05:02:10;7.83;;;5.30;;
22219;SDS011;11279;48.364;10.904;2023-03-20T05:03:14;8.90;;;4.72;;
22219;SDS011;11279;48.364;10.904;2023-03-20T05:04:14;7.73;;;4.17;;
22219;SDS011;11279;48.364;10.904;2023-03-20T05:05:14;7.03;;;4.63;;
22219;SDS011;11279;48.364;10.904;2023-03-20T05:06:15;7.10;;;4.57;;
22219;SDS011;11279;48.364;10.904;2023-03-20T05:07:15;8.90;;;4.87;;
22219;SDS011;11279;48.364;10.904;2023-03-20T05:08:16;7.33;;;4.80;;
22219;SDS011;11279;48.364;10.904;2023-03-20T05:09:16;7.27;;;4.77;;
22219;SDS011;11279;48.364;10.904;2023-03-20T05:10:17;7.50;;;4.80;;
22219;SDS011;11279;48.364;10.904;2023-03-20T05:11:18;8.70;;;4.43;;
22219;SDS011;11279;48.364;10.904;2023-03-20T05:12:18;8.93;;;5.20;;
22219;SDS011;11279;48.364;10.904;2023-03-20T05:13:19;6.57;;;4.60;;
22219;SDS011;11279;48.364;10.904;2023-03-20T05:14:19;9.60;;;5.20;;
22219;SDS011;11279;48.364;10.904;2023-03-20T05:15:20;9.13;;;5.43;;
22219;SDS011;11279;48.364;10.904;2023-03-20T05:16:20;8.33;;;4.90;;
22219;SDS011;11279;48.364;10.904;2023-03-20T05:17:21;6.17;;;4.47;;
22219;SDS011;11279;48.364;10.904;2023-03-20T05:18:22;8.65;;;5.88;;
22219;SDS011;11279;48.364;10.904;2023-03-20T05:19:22;8.30;;;5.70;;
22219;SDS011;11279;48.364;10.904;2023-03-20T05:20:23;9.83;;;5.37;;
22219;SDS011;11279;48.364;10.904;2023-03-20T05:21:23;10.83;;;5.77;;
22219;SDS011;11279;48.364;10.904;2023-03-20T05:22:24;8.20;;;5.57;;
22219;SDS011;11279;48.364;10.904;2023-03-20T05:23:24;8.93;;;5.60;;
22219;SDS011;11279;48.364;10.904;2023-03-20T05:24:25;8.97;;;5.30;;
22219;SDS011;11279;48.364;10.904;2023-03-20T05:25:28;7.80;;;5.30;;
22219;SDS011;11279;48.364;10.904;2023-03-20T05:26:30;7.27;;;5.17;;
22219;SDS011;11279;48.364;10.904;2023-03-20T05:27:31;7.70;;;5.18;;
22219;SDS011;11279;48.364;10.904;2023-03-20T05:28:31;11.77;;;5.30;;
22219;SDS011;11279;48.364;10.904;2023-03-20T05:29:32;8.30;;;5.23;;
22219;SDS011;11279;48.364;10.904;2023-03-20T05:30:32;9.70;;;5.50;;
22219;SDS011;11279;48.364;10.904;2023-03-20T05:31:33;8.33;;;5.30;;
22219;SDS011;11279;48.364;10.904;2023-03-20T05:32:33;8.97;;;5.60;;
22219;SDS011;11279;48.364;10.904;2023-03-20T05:33:35;10.68;;;5.55;;
22219;SDS011;11279;48.364;10.904;2023-03-20T05:34:36;7.67;;;5.03;;
22219;SDS011;11279;48.364;10.904;2023-03-20T05:35:36;8.87;;;5.93;;
22219;SDS011;11279;48.364;10.904;2023-03-20T05:36:37;10.23;;;5.93;;
22219;SDS011;11279;48.364;10.904;2023-03-20T05:37:38;10.93;;;5.43;;
22219;SDS011;11279;48.364;10.904;2023-03-20T05:38:38;8.90;;;5.63;;
22219;SDS011;11279;48.364;10.904;2023-03-20T05:39:39;12.23;;;6.90;;
22219;SDS011;11279;48.364;10.904;2023-03-20T05:40:39;8.40;;;6.00;;
22219;SDS011;11279;48.364;10.904;2023-03-20T05:41:40;9.05;;;6.10;;
22219;SDS011;11279;48.364;10.904;2023-03-20T05:42:41;12.10;;;5.90;;
22219;SDS011;11279;48.364;10.904;2023-03-20T05:43:42;10.07;;;5.77;;
22219;SDS011;11279;48.364;10.904;2023-03-20T05:44:42;8.50;;;5.23;;
22219;SDS011;11279;48.364;10.904;2023-03-20T05:45:43;9.60;;;6.00;;
22219;SDS011;11279;48.364;10.904;2023-03-20T05:46:43;10.07;;;6.00;;
22219;SDS011;11279;48.364;10.904;2023-03-20T05:47:43;7.50;;;5.60;;
22219;SDS011;11279;48.364;10.904;2023-03-20T05:48:44;9.73;;;6.17;;
22219;SDS011;11279;48.364;10.904;2023-03-20T05:49:45;9.10;;;6.03;;
22219;SDS011;11279;48.364;10.904;2023-03-20T05:50:45;9.80;;;5.83;;
22219;SDS011;11279;48.364;10.904;2023-03-20T05:51:46;6.93;;;5.63;;
22219;SDS011;11279;48.364;10.904;2023-03-20T05:52:46;9.53;;;5.70;;
22219;SDS011;11279;48.364;10.904;2023-03-20T05:53:47;7.78;;;5.80;;
22219;SDS011;11279;48.364;10.904;2023-03-20T05:54:48;9.17;;;6.10;;
22219;SDS011;11279;48.364;10.904;2023-03-20T05:55:48;8.00;;;5.93;;
22219;SDS011;11279;48.364;10.904;2023-03-20T05:56:49;8.07;;;5.67;;
22219;SDS011;11279;48.364;10.904;2023-03-20T05:57:49;8.97;;;6.17;;
22219;SDS011;11279;48.364;10.904;2023-03-20T05:58:50;8.93;;;5.93;;
22219;SDS011;11279;48.364;10.904;2023-03-20T05:59:51;15.57;;;6.57;;
22219;SDS011;11279;48.364;10.904;2023-03-20T06:00:51;9.07;;;6.30;;
22219;SDS011;11279;48.364;10.904;2023-03-20T06:01:52;8.77;;;5.80;;
22219;SDS011;11279;48.364;10.904;2023-03-20T06:02:52;9.53;;;5.53;;
22219;SDS011;11279;48.364;10.904;2023-03-20T06:03:52;9.60;;;6.20;;
22219;SDS011;11279;48.364;10.904;2023-03-20T06:04:53;9.53;;;6.00;;
22219;SDS011;11279;48.364;10.904;2023-03-20T06:05:54;10.07;;;6.00;;
22219;SDS011;11279;48.364;10.904;2023-03-20T06:06:54;9.87;;;6.47;;
22219;SDS011;11279;48.364;10.904;2023-03-20T06:07:55;8.37;;;5.83;;
22219;SDS011;11279;48.364;10.904;2023-03-20T06:08:55;9.67;;;6.10;;
22219;SDS011;11279;48.364;10.904;2023-03-20T06:09:56;10.70;;;6.30;;
22219;SDS011;11279;48.364;10.904;2023-03-20T06:10:56;8.50;;;5.93;;
22219;SDS011;11279;48.364;10.904;2023-03-20T06:11:56;10.80;;;6.37;;
22219;SDS011;11279;48.364;10.904;2023-03-20T06:12:57;9.13;;;5.93;;
22219;SDS011;11279;48.364;10.904;2023-03-20T06:14:00;9.00;;;5.70;;
22219;SDS011;11279;48.364;10.904;2023-03-20T06:15:00;10.20;;;6.23;;
22219;SDS011;11279;48.364;10.904;2023-03-20T06:16:01;9.63;;;5.83;;
22219;SDS011;11279;48.364;10.904;2023-03-20T06:17:01;12.43;;;6.47;;
22219;SDS011;11279;48.364;10.904;2023-03-20T06:18:02;11.07;;;6.07;;
22219;SDS011;11279;48.364;10.904;2023-03-20T06:19:02;7.23;;;5.13;;
22219;SDS011;11279;48.364;10.904;2023-03-20T06:20:03;9.30;;;5.60;;
22219;SDS011;11279;48.364;10.904;2023-03-20T06:21:04;9.13;;;5.65;;
22219;SDS011;11279;48.364;10.904;2023-03-20T06:22:05;11.03;;;6.37;;
22219;SDS011;11279;48.364;10.904;2023-03-20T06:23:05;9.07;;;6.10;;
22219;SDS011;11279;48.364;10.904;2023-03-20T06:24:06;8.27;;;5.63;;
22219;SDS011;11279;48.364;10.904;2023-03-20T06:25:07;13.43;;;6.27;;
22219;SDS011;11279;48.364;10.904;2023-03-20T06:26:07;7.63;;;5.53;;
22219;SDS011;11279;48.364;10.904;2023-03-20T06:27:08;10.03;;;6.53;;
22219;SDS011;11279;48.364;10.904;2023-03-20T06:28:08;10.93;;;5.57;;
22219;SDS011;11279;48.364;10.904;2023-03-20T06:29:09;8.37;;;5.60;;
22219;SDS011;11279;48.364;10.904;2023-03-20T06:30:09;8.20;;;5.80;;
22219;SDS011;11279;48.364;10.904;2023-03-20T06:31:10;11.55;;;6.30;;
22219;SDS011;11279;48.364;10.904;2023-03-20T06:32:11;10.53;;;6.33;;
22219;SDS011;11279;48.364;10.904;2023-03-20T06:33:13;9.02;;;5.70;;
22219;SDS011;11279;48.364;10.904;2023-03-20T06:34:14;11.17;;;7.00;;
22219;SDS011;11279;48.364;10.904;2023-03-20T06:35:14;10.60;;;5.90;;
22219;SDS011;11279;48.364;10.904;2023-03-20T06:36:15;9.13;;;6.37;;
22219;SDS011;11279;48.364;10.904;2023-03-20T06:37:15;10.10;;;6.30;;
22219;SDS011;11279;48.364;10.904;2023-03-20T06:38:16;9.83;;;6.33;;
22219;SDS011;11279;48.364;10.904;2023-03-20T06:39:16;10.07;;;6.07;;
22219;SDS011;11279;48.364;10.904;2023-03-20T06:40:17;9.17;;;5.60;;
22219;SDS011;11279;48.364;10.904;2023-03-20T06:41:17;9.33;;;5.70;;
22219;SDS011;11279;48.364;10.904;2023-03-20T06:42:18;8.17;;;5.50;;
22219;SDS011;11279;48.364;10.904;2023-03-20T06:43:18;8.87;;;5.50;;
22219;SDS011;11279;48.364;10.904;2023-03-20T06:44:19;8.97;;;5.17;;
22219;SDS011;11279;48.364;10.904;2023-03-20T06:45:20;7.28;;;5.15;;
22219;SDS011;11279;48.364;10.904;2023-03-20T06:46:21;10.07;;;5.53;;
22219;SDS011;11279;48.364;10.904;2023-03-20T06:47:21;7.10;;;5.20;;
22219;SDS011;11279;48.364;10.904;2023-03-20T06:48:22;8.13;;;5.40;;
22219;SDS011;11279;48.364;10.904;2023-03-20T06:49:23;8.10;;;4.53;;
22219;SDS011;11279;48.364;10.904;2023-03-20T06:50:23;7.93;;;5.13;;